createdAt,value
2022-11-08T00:00:47.993Z,90.75
2022-11-08T00:03:20.376Z,90.52
2022-11-08T00:06:10.678Z,90.09
2022-11-08T00:09:00.890Z,90.17
2022-11-08T00:11:50.940Z,90.77
2022-11-08T00:14:23.136Z,90.55
2022-11-08T00:16:55.302Z,90.41
2022-11-08T00:19:28.245Z,90.93
2022-11-08T00:22:01.559Z,91.31
2022-11-08T00:24:34.930Z,91.55
2022-11-08T00:27:09.329Z,91.11
2022-11-08T00:29:41.904Z,90.94
2022-11-08T00:32:16.280Z,90.40
2022-11-08T00:34:49.565Z,90.57
2022-11-08T00:37:23.144Z,90.88
2022-11-08T00:39:55.366Z,90.63
2022-11-08T00:42:27.558Z,90.54
2022-11-08T00:44:59.777Z,91.05
2022-11-08T00:47:32.105Z,91.06
2022-11-08T00:50:04.367Z,91.20
2022-11-08T00:52:36.670Z,91.06
2022-11-08T00:55:11.700Z,90.52
2022-11-08T00:58:00.244Z,90.42
2022-11-08T01:00:33.061Z,90.53
2022-11-08T01:03:20.401Z,90.54
2022-11-08T01:05:54.347Z,90.42
2022-11-08T01:08:26.645Z,90.96
2022-11-08T01:11:02.425Z,90.91
2022-11-08T01:13:34.893Z,91.07
2022-11-08T01:16:12.277Z,90.97
2022-11-08T01:18:45.788Z,90.35
2022-11-08T01:21:18.951Z,90.44
2022-11-08T01:23:51.705Z,90.19
2022-11-08T01:26:28.803Z,90.45
2022-11-08T01:29:01.319Z,90.13
2022-11-08T01:31:34.330Z,90.30
2022-11-08T01:34:06.627Z,90.51
2022-11-08T01:36:39.665Z,90.67
2022-11-08T01:39:11.913Z,90.72
2022-11-08T01:41:44.359Z,90.91
2022-11-08T01:44:20.549Z,90.54
2022-11-08T01:46:52.872Z,90.08
2022-11-08T01:49:36.357Z,90.26
2022-11-08T01:52:28.414Z,90.12
2022-11-08T01:55:09.853Z,90.16
2022-11-08T01:57:49.060Z,90.50
2022-11-08T02:00:21.814Z,90.06
2022-11-08T02:02:59.362Z,90.32
2022-11-08T02:05:32.730Z,90.72
2022-11-08T02:08:08.015Z,90.91
2022-11-08T02:10:42.112Z,90.49
2022-11-08T02:13:18.371Z,90.19
2022-11-08T02:15:50.803Z,90.00
2022-11-08T02:18:28.214Z,90.23
2022-11-08T02:21:09.242Z,90.25
2022-11-08T02:23:48.191Z,90.21
2022-11-08T02:26:23.738Z,90.49
2022-11-08T02:28:56.471Z,90.76
2022-11-08T02:31:28.613Z,90.88
2022-11-08T02:34:01.293Z,90.73
2022-11-08T02:36:33.413Z,90.66
2022-11-08T02:39:05.603Z,90.33
2022-11-08T02:41:37.782Z,90.85
2022-11-08T02:44:10.068Z,90.56
2022-11-08T02:46:42.210Z,90.70
2022-11-08T02:49:14.533Z,90.68
2022-11-08T02:51:46.730Z,90.98
2022-11-08T02:54:18.896Z,91.08
2022-11-08T02:56:51.045Z,90.81
2022-11-08T02:59:23.220Z,90.90
2022-11-08T03:01:55.526Z,90.48
2022-11-08T03:04:27.800Z,90.35
2022-11-08T03:07:00.036Z,90.25
2022-11-08T03:09:32.338Z,90.39
2022-11-08T03:12:04.720Z,90.56
2022-11-08T03:14:36.904Z,90.36
2022-11-08T03:17:09.131Z,91.05
2022-11-08T03:19:41.503Z,90.84
2022-11-08T03:22:13.716Z,91.01
2022-11-08T03:24:45.967Z,90.90
2022-11-08T03:27:19.411Z,90.60
2022-11-08T03:29:51.937Z,90.60
2022-11-08T03:32:24.091Z,90.87
2022-11-08T03:34:56.248Z,91.02
2022-11-08T03:37:28.465Z,90.94
2022-11-08T03:40:00.617Z,91.19
2022-11-08T03:42:32.831Z,91.11
2022-11-08T03:45:05.299Z,91.42
2022-11-08T03:47:41.826Z,91.72
2022-11-08T03:50:15.813Z,91.48
2022-11-08T03:52:50.102Z,91.16
2022-11-08T03:55:24.729Z,91.07
2022-11-08T03:57:57.626Z,90.85
2022-11-08T04:00:31.494Z,91.18
2022-11-08T04:03:07.327Z,90.89
2022-11-08T04:05:39.571Z,90.94
2022-11-08T04:08:12.049Z,91.50
2022-11-08T04:10:44.342Z,91.35
2022-11-08T04:13:34.330Z,91.46
2022-11-08T04:16:07.444Z,91.40
2022-11-08T04:18:57.354Z,90.89
2022-11-08T04:21:29.802Z,90.90
2022-11-08T04:24:02.101Z,90.75
2022-11-08T04:26:34.294Z,90.97
2022-11-08T04:29:06.516Z,91.25
2022-11-08T04:31:39.197Z,91.30
2022-11-08T04:34:11.520Z,91.62
2022-11-08T04:36:43.733Z,91.70
2022-11-08T04:39:15.904Z,91.81
2022-11-08T04:41:48.098Z,91.93
2022-11-08T04:44:20.342Z,91.24
2022-11-08T04:46:52.356Z,91.25
2022-11-08T04:49:24.524Z,91.16
2022-11-08T04:51:56.720Z,91.24
2022-11-08T04:54:28.886Z,91.40
2022-11-08T04:57:01.105Z,91.46
2022-11-08T04:59:33.375Z,91.88
2022-11-08T05:02:05.676Z,91.75
2022-11-08T05:04:37.993Z,92.03
2022-11-08T05:07:10.139Z,91.72
2022-11-08T05:09:42.387Z,91.30
2022-11-08T05:12:14.600Z,91.31
2022-11-08T05:14:46.795Z,91.42
2022-11-08T05:17:19.219Z,91.21
2022-11-08T05:20:09.511Z,91.27
2022-11-08T05:22:59.676Z,91.27
2022-11-08T05:25:32.177Z,91.61
2022-11-08T05:28:04.594Z,91.90
2022-11-08T05:30:36.947Z,91.81
2022-11-08T05:33:09.554Z,91.69
2022-11-08T05:35:42.075Z,91.15
2022-11-08T05:38:14.403Z,90.99
2022-11-08T05:40:46.749Z,91.41
2022-11-08T05:43:19.259Z,91.20
2022-11-08T05:45:51.905Z,91.37
2022-11-08T05:48:24.176Z,91.52
2022-11-08T05:50:56.833Z,91.75
2022-11-08T05:53:30.048Z,91.89
2022-11-08T05:56:03.601Z,91.91
2022-11-08T05:58:37.475Z,91.88
2022-11-08T06:01:12.441Z,92.23
2022-11-08T06:03:43.484Z,91.81
2022-11-08T06:06:17.673Z,91.84
2022-11-08T06:08:51.571Z,91.99
2022-11-08T06:11:42.465Z,91.79
2022-11-08T06:14:14.683Z,91.72
2022-11-08T06:16:46.911Z,91.69
2022-11-08T06:19:19.071Z,91.96
2022-11-08T06:21:51.291Z,92.09
2022-11-08T06:24:23.820Z,92.33
2022-11-08T06:26:55.991Z,92.77
2022-11-08T06:29:28.282Z,92.31
2022-11-08T06:32:00.477Z,91.73
2022-11-08T06:34:32.668Z,92.01
2022-11-08T06:37:05.569Z,91.79
2022-11-08T06:39:37.851Z,91.97
2022-11-08T06:42:10.328Z,92.02
2022-11-08T06:44:42.520Z,92.01
2022-11-08T06:47:14.944Z,92.37
2022-11-08T06:49:47.139Z,92.20
2022-11-08T06:52:19.385Z,92.83
2022-11-08T06:54:52.273Z,93.08
2022-11-08T06:57:24.462Z,92.18
2022-11-08T06:59:56.733Z,92.10
2022-11-08T07:02:29.107Z,92.11
2022-11-08T07:05:01.492Z,92.18
2022-11-08T07:07:33.705Z,92.10
2022-11-08T07:10:06.811Z,92.08
2022-11-08T07:12:39.443Z,92.27
2022-11-08T07:15:12.525Z,92.59
2022-11-08T07:17:44.807Z,92.63
2022-11-08T07:20:17.256Z,92.52
2022-11-08T07:22:49.498Z,92.02
2022-11-08T07:25:21.948Z,92.15
2022-11-08T07:27:57.955Z,91.96
2022-11-08T07:30:30.998Z,91.97
2022-11-08T07:33:03.548Z,92.14
2022-11-08T07:35:35.893Z,92.24
2022-11-08T07:38:08.363Z,92.47
2022-11-08T07:40:40.589Z,92.75
2022-11-08T07:43:13.347Z,92.68
2022-11-08T07:45:45.703Z,92.90
2022-11-08T07:48:17.900Z,92.31
2022-11-08T07:50:50.086Z,92.12
2022-11-08T07:53:22.499Z,92.17
2022-11-08T07:55:55.408Z,92.21
2022-11-08T07:58:28.013Z,92.19
2022-11-08T08:01:04.500Z,92.22
2022-11-08T08:03:36.687Z,92.35
2022-11-08T08:06:09.159Z,92.50
2022-11-08T08:08:41.939Z,92.76
2022-11-08T08:11:14.600Z,92.61
2022-11-08T08:13:46.763Z,92.38
2022-11-08T08:16:19.136Z,92.20
2022-11-08T08:18:56.359Z,92.19
2022-11-08T08:21:29.107Z,92.33
2022-11-08T08:24:01.245Z,92.53
2022-11-08T08:26:33.541Z,92.60
2022-11-08T08:29:05.739Z,92.74
2022-11-08T08:31:37.956Z,92.51
2022-11-08T08:34:10.065Z,92.48
2022-11-08T08:36:42.522Z,92.56
2022-11-08T08:39:14.920Z,93.06
2022-11-08T08:41:47.141Z,92.62
2022-11-08T08:44:19.410Z,91.91
2022-11-08T08:46:51.606Z,93.22
2022-11-08T08:49:23.773Z,92.40
2022-11-08T08:51:56.044Z,91.25
2022-11-08T08:54:29.587Z,91.36
2022-11-08T08:57:01.915Z,90.59
2022-11-08T09:02:26.196Z,89.54
2022-11-08T09:04:59.235Z,89.57
2022-11-08T09:07:31.535Z,89.78
2022-11-08T09:10:03.926Z,90.03
2022-11-08T09:12:37.196Z,90.04
2022-11-08T09:15:11.185Z,89.79
2022-11-08T09:17:43.760Z,90.37
2022-11-08T09:20:17.262Z,90.62
2022-11-08T09:22:49.684Z,89.82
2022-11-08T09:25:22.085Z,87.77
2022-11-08T09:27:56.787Z,88.20
2022-11-08T09:30:27.674Z,88.26
2022-11-08T09:33:01.729Z,88.72
2022-11-08T09:35:33.547Z,87.51
2022-11-08T09:38:05.764Z,86.80
2022-11-08T09:40:41.902Z,85.80
2022-11-08T09:43:40.249Z,84.82
2022-11-08T09:46:18.756Z,85.89
2022-11-08T09:48:52.376Z,84.89
2022-11-08T09:51:26.318Z,87.37
2022-11-08T09:54:01.192Z,84.08
2022-11-08T09:56:36.645Z,83.15
2022-11-08T09:59:21.096Z,82.73
2022-11-08T10:01:53.355Z,83.07
2022-11-08T10:04:27.789Z,82.65
2022-11-08T10:07:14.569Z,82.81
2022-11-08T10:10:00.802Z,82.76
2022-11-08T10:12:44.809Z,80.91
2022-11-08T10:15:26.404Z,80.88
2022-11-08T10:18:31.910Z,82.47
2022-11-08T10:21:12.238Z,82.05
2022-11-08T10:23:47.434Z,81.53
2022-11-08T10:26:26.707Z,81.41
2022-11-08T10:29:01.171Z,82.29
2022-11-08T10:31:36.632Z,81.96
2022-11-08T10:34:18.194Z,83.22
2022-11-08T10:36:52.691Z,82.71
2022-11-08T10:39:29.238Z,80.79
2022-11-08T10:42:09.263Z,82.23
2022-11-08T10:44:43.787Z,80.79
2022-11-08T10:47:23.124Z,79.27
2022-11-08T10:50:00.905Z,78.67
2022-11-08T10:52:39.571Z,77.91
2022-11-08T10:55:24.232Z,80.18
2022-11-08T10:57:56.450Z,78.62
2022-11-08T11:00:35.403Z,79.01
2022-11-08T11:03:29.079Z,77.46
2022-11-08T11:06:06.464Z,79.10
2022-11-08T11:08:52.073Z,80.43
2022-11-08T11:11:28.492Z,78.41
2022-11-08T11:14:21.901Z,79.58
2022-11-08T11:17:07.690Z,78.44
2022-11-08T11:19:44.343Z,77.56
2022-11-08T11:22:17.433Z,77.28
2022-11-08T11:24:54.951Z,78.45
2022-11-08T11:27:33.334Z,77.55
2022-11-08T11:30:25.221Z,77.01
2022-11-08T11:33:07.398Z,78.12
2022-11-08T11:35:47.888Z,78.40
2022-11-08T11:38:31.499Z,76.91
2022-11-08T11:41:11.216Z,75.22
2022-11-08T11:43:49.489Z,77.62
2022-11-08T11:46:29.156Z,76.96
2022-11-08T11:49:05.926Z,74.43
2022-11-08T11:51:38.297Z,75.56
2022-11-08T11:54:12.848Z,76.39
2022-11-08T11:56:53.898Z,77.02
2022-11-08T11:59:47.647Z,76.76
2022-11-08T12:03:06.270Z,75.82
2022-11-08T12:05:48.362Z,77.69
2022-11-08T12:08:32.302Z,76.49
2022-11-08T12:11:21.032Z,75.06
2022-11-08T12:14:08.201Z,74.95
2022-11-08T12:16:52.658Z,76.92
2022-11-08T12:19:41.738Z,77.46
2022-11-08T12:22:40.260Z,77.70
2022-11-08T12:25:21.184Z,76.97
2022-11-08T12:27:58.273Z,78.15
2022-11-08T12:30:48.124Z,78.56
2022-11-08T12:33:41.157Z,79.11
2022-11-08T12:36:24.343Z,78.63
2022-11-08T12:39:06.024Z,78.55
2022-11-08T12:41:53.628Z,78.56
2022-11-08T12:44:55.006Z,78.43
2022-11-08T12:47:36.724Z,77.45
2022-11-08T12:50:25.943Z,77.50
2022-11-08T12:53:24.737Z,76.85
2022-11-08T12:55:59.589Z,77.47
2022-11-08T12:58:37.264Z,77.98
2022-11-08T13:01:13.140Z,77.46
2022-11-08T13:04:20.154Z,77.21
2022-11-08T13:06:59.027Z,77.75
2022-11-08T13:09:41.566Z,77.10
2022-11-08T13:12:29.837Z,76.97
2022-11-08T13:15:04.742Z,76.82
2022-11-08T13:17:37.115Z,76.73
2022-11-08T13:20:43.414Z,76.46
2022-11-08T13:23:17.677Z,76.78
2022-11-08T13:25:50.793Z,77.04
2022-11-08T13:28:54.754Z,76.78
2022-11-08T13:31:49.223Z,76.59
2022-11-08T13:34:36.058Z,77.01
2022-11-08T13:37:34.824Z,76.97
2022-11-08T13:40:28.114Z,76.78
2022-11-08T13:43:23.834Z,76.81
2022-11-08T13:45:56.846Z,76.76
2022-11-08T13:48:42.381Z,76.92
2022-11-08T13:51:29.185Z,76.77
2022-11-08T13:54:03.102Z,76.95
2022-11-08T13:56:46.971Z,77.09
2022-11-08T14:00:00.048Z,76.88
2022-11-08T14:02:48.827Z,76.97
2022-11-08T14:05:48.440Z,76.94
2022-11-08T14:08:42.519Z,76.86
2022-11-08T14:11:45.809Z,76.66
2022-11-08T14:14:52.727Z,76.73
2022-11-08T14:17:34.572Z,76.59
2022-11-08T14:20:28.400Z,76.76
2022-11-08T14:23:03.412Z,76.82
2022-11-08T14:25:39.161Z,76.88
2022-11-08T14:28:26.457Z,76.90
2022-11-08T14:31:00.469Z,76.77
2022-11-08T14:33:34.052Z,76.86
2022-11-08T14:36:09.339Z,76.71
2022-11-08T14:38:50.848Z,76.72
2022-11-08T14:41:29.238Z,76.47
2022-11-08T14:44:03.940Z,76.65
2022-11-08T14:46:35.769Z,76.42
2022-11-08T14:49:20.461Z,76.68
2022-11-08T14:52:07.813Z,76.79
2022-11-08T14:54:43.026Z,76.74
2022-11-08T14:57:36.681Z,76.86
2022-11-08T15:00:19.977Z,76.97
2022-11-08T15:02:55.013Z,76.67
2022-11-08T15:05:38.802Z,76.79
2022-11-08T15:08:23.005Z,76.81
2022-11-08T15:11:01.785Z,76.77
2022-11-08T15:13:40.373Z,76.51
2022-11-08T15:16:13.646Z,76.56
2022-11-08T15:18:46.488Z,76.58
2022-11-08T15:21:30.904Z,76.65
2022-11-08T15:24:15.210Z,76.75
2022-11-08T15:27:07.440Z,76.73
2022-11-08T15:29:54.691Z,76.77
2022-11-08T15:32:27.116Z,76.88
2022-11-08T15:34:59.668Z,76.91
2022-11-08T15:37:37.180Z,76.97
2022-11-08T15:40:20.185Z,76.84
2022-11-08T15:42:53.381Z,76.65
2022-11-08T15:45:29.057Z,76.62
2022-11-08T15:48:13.865Z,76.68
2022-11-08T15:50:46.034Z,76.62
2022-11-08T15:53:18.330Z,76.80
2022-11-08T15:55:53.287Z,76.81
2022-11-08T15:58:29.731Z,76.94
2022-11-08T16:01:03.589Z,77.05
2022-11-08T16:03:36.479Z,77.12
2022-11-08T16:06:10.887Z,77.01
2022-11-08T16:08:43.021Z,76.95
2022-11-08T16:11:21.904Z,76.79
2022-11-08T16:13:55.050Z,76.73
2022-11-08T16:16:30.033Z,76.72
2022-11-08T16:19:06.411Z,76.80
2022-11-08T16:21:38.624Z,76.83
2022-11-08T16:24:11.254Z,76.81
2022-11-08T16:26:45.497Z,77.15
2022-11-08T16:29:23.625Z,76.89
2022-11-08T16:31:55.925Z,77.17
2022-11-08T16:34:28.375Z,76.95
2022-11-08T16:37:00.598Z,76.82
2022-11-08T16:39:32.783Z,76.82
2022-11-08T16:42:05.954Z,76.87
2022-11-08T16:44:39.711Z,76.95
2022-11-08T16:47:19.109Z,76.93
2022-11-08T16:49:51.646Z,77.28
2022-11-08T16:52:23.970Z,77.20
2022-11-08T16:54:56.240Z,77.23
2022-11-08T16:57:34.756Z,77.27
2022-11-08T17:00:10.261Z,77.29
2022-11-08T17:02:45.474Z,77.31
2022-11-08T17:05:23.117Z,77.05
2022-11-08T17:07:56.926Z,77.03
2022-11-08T17:10:31.121Z,77.00
2022-11-08T17:13:03.359Z,77.00
2022-11-08T17:15:35.634Z,77.17
2022-11-08T17:18:08.029Z,77.25
2022-11-08T17:20:40.581Z,77.45
2022-11-08T17:23:13.874Z,77.25
2022-11-08T17:25:46.658Z,77.33
2022-11-08T17:28:19.069Z,77.33
2022-11-08T17:30:51.482Z,77.36
2022-11-08T17:33:23.673Z,77.08
2022-11-08T17:35:55.892Z,77.09
2022-11-08T17:38:28.112Z,77.19
2022-11-08T17:41:06.833Z,77.19
2022-11-08T17:43:39.457Z,77.04
2022-11-08T17:46:12.403Z,77.35
2022-11-08T17:48:44.725Z,77.39
2022-11-08T17:51:17.201Z,77.43
2022-11-08T17:53:49.517Z,77.63
2022-11-08T17:56:21.715Z,77.64
2022-11-08T17:58:53.894Z,77.43
2022-11-08T18:01:26.186Z,77.28
2022-11-08T18:03:58.601Z,77.21
2022-11-08T18:06:30.943Z,77.24
2022-11-08T18:09:03.298Z,77.42
2022-11-08T18:11:35.870Z,77.37
2022-11-08T18:14:08.261Z,77.75
2022-11-08T18:16:40.461Z,77.75
2022-11-08T18:19:12.736Z,77.66
2022-11-08T18:21:45.440Z,77.75
2022-11-08T18:24:18.583Z,77.88
2022-11-08T18:26:51.030Z,77.47
2022-11-08T18:29:23.609Z,77.68
2022-11-08T18:31:56.035Z,77.62
2022-11-08T18:34:28.636Z,77.61
2022-11-08T18:37:00.831Z,77.60
2022-11-08T18:39:33.038Z,77.76
2022-11-08T18:42:05.545Z,77.90
2022-11-08T18:44:38.191Z,78.25
2022-11-08T18:47:10.325Z,78.09
2022-11-08T18:49:42.696Z,78.21
2022-11-08T18:52:15.455Z,77.82
2022-11-08T18:54:48.799Z,78.05
2022-11-08T18:57:21.089Z,77.78
2022-11-08T18:59:57.215Z,78.05
2022-11-08T19:02:32.937Z,78.21
2022-11-08T19:05:05.613Z,78.16
2022-11-08T19:07:37.931Z,78.08
2022-11-08T19:10:12.201Z,78.33
2022-11-08T19:12:44.423Z,78.36
2022-11-08T19:15:16.874Z,78.35
2022-11-08T19:17:53.878Z,78.24
2022-11-08T19:20:26.150Z,78.09
2022-11-08T19:22:58.345Z,78.06
2022-11-08T19:25:30.513Z,78.05
2022-11-08T19:28:02.810Z,78.21
2022-11-08T19:30:34.952Z,78.21
2022-11-08T19:33:07.178Z,78.44
2022-11-08T19:35:41.411Z,78.42
2022-11-08T19:38:13.579Z,78.57
2022-11-08T19:40:47.467Z,78.55
2022-11-08T19:43:21.266Z,78.53
2022-11-08T19:45:57.401Z,78.21
2022-11-08T19:48:31.297Z,78.21
2022-11-08T19:51:06.795Z,78.17
2022-11-08T19:53:41.847Z,78.31
2022-11-08T19:56:18.137Z,78.33
2022-11-08T19:58:51.644Z,78.45
2022-11-08T20:01:28.768Z,78.35
2022-11-08T20:04:03.114Z,78.67
2022-11-08T20:06:37.592Z,78.75
2022-11-08T20:09:12.612Z,78.63
2022-11-08T20:11:47.573Z,78.57
2022-11-08T20:14:21.338Z,78.37
2022-11-08T20:16:54.727Z,78.43
2022-11-08T20:19:27.353Z,78.34
2022-11-08T20:22:00.068Z,78.31
2022-11-08T20:24:32.544Z,78.33
2022-11-08T20:27:04.813Z,78.59
2022-11-08T20:29:37.032Z,78.61
2022-11-08T20:32:09.536Z,78.80
2022-11-08T20:34:41.804Z,78.90
2022-11-08T20:37:14.794Z,78.95
2022-11-08T20:39:47.121Z,78.50
2022-11-08T20:42:20.948Z,78.65
2022-11-08T20:44:53.590Z,78.46
2022-11-08T20:47:25.718Z,78.56
2022-11-08T20:49:58.499Z,78.53
2022-11-08T20:52:30.696Z,78.75
2022-11-08T20:55:02.945Z,78.97
2022-11-08T20:57:35.085Z,78.78
2022-11-08T21:00:13.552Z,78.95
2022-11-08T21:02:46.102Z,78.82
2022-11-08T21:05:18.537Z,78.78
2022-11-08T21:08:57.250Z,78.79
2022-11-08T21:10:47.727Z,78.64
2022-11-08T21:13:20.631Z,78.76
2022-11-08T21:15:53.647Z,78.74
2022-11-08T21:18:26.348Z,79.12
2022-11-08T21:21:06.121Z,78.98
2022-11-08T21:23:40.083Z,79.05
2022-11-08T21:26:13.580Z,79.00
2022-11-08T21:28:46.156Z,79.27
2022-11-08T21:31:18.811Z,79.05
2022-11-08T21:33:51.003Z,78.69
2022-11-08T21:36:26.789Z,78.83
2022-11-08T21:38:59.029Z,78.80
2022-11-08T21:41:31.299Z,78.99
2022-11-08T21:44:03.492Z,79.01
2022-11-08T21:46:35.584Z,79.13
2022-11-08T21:49:10.746Z,79.43
2022-11-08T21:51:42.965Z,79.35
2022-11-08T21:54:15.545Z,79.14
2022-11-08T21:56:47.736Z,79.23
2022-11-08T21:59:19.881Z,78.80
2022-11-08T22:01:52.046Z,79.00
2022-11-08T22:04:24.267Z,78.98
2022-11-08T22:06:56.607Z,78.72
2022-11-08T22:09:28.834Z,79.07
2022-11-08T22:12:01.057Z,79.04
2022-11-08T22:14:33.223Z,79.33
2022-11-08T22:17:05.546Z,79.49
2022-11-08T22:19:37.736Z,79.53
2022-11-08T22:22:10.289Z,79.53
2022-11-08T22:24:42.743Z,79.33
2022-11-08T22:27:14.961Z,79.01
2022-11-08T22:29:47.316Z,78.99
2022-11-08T22:32:19.552Z,79.04
2022-11-08T22:34:51.718Z,79.22
2022-11-08T22:37:23.916Z,79.02
2022-11-08T22:39:56.186Z,79.53
2022-11-08T22:42:28.430Z,79.57
2022-11-08T22:45:00.651Z,79.46
2022-11-08T22:47:32.970Z,79.45
2022-11-08T22:50:05.503Z,79.56
2022-11-08T22:52:37.798Z,79.38
2022-11-08T22:55:11.959Z,79.02
2022-11-08T22:57:44.180Z,79.06
2022-11-08T23:00:18.658Z,79.02
2022-11-08T23:02:51.074Z,79.20
2022-11-08T23:05:23.267Z,79.20
2022-11-08T23:07:56.332Z,79.27
2022-11-08T23:10:28.988Z,79.48
2022-11-08T23:13:30.294Z,79.54
2022-11-08T23:16:20.249Z,79.58
2022-11-08T23:19:06.397Z,79.64
2022-11-08T23:21:56.329Z,79.52
2022-11-08T23:24:28.934Z,79.08
2022-11-08T23:27:19.790Z,79.07
2022-11-08T23:30:10.160Z,79.10
2022-11-08T23:32:46.761Z,79.18
2022-11-08T23:35:20.719Z,78.96
2022-11-08T23:37:53.474Z,79.47
2022-11-08T23:40:43.255Z,79.59
2022-11-08T23:43:34.762Z,79.50
2022-11-08T23:46:12.021Z,79.60
2022-11-08T23:48:43.981Z,79.85
2022-11-08T23:51:15.915Z,79.69
2022-11-08T23:53:48.013Z,79.48
2022-11-08T23:56:24.270Z,79.28
2022-11-08T23:58:58.466Z,78.98
